sensor_id;sensor_type;location;lat;lon;timestamp;P1;durP1;ratioP1;P2;durP2;ratioP2
38911;SDS011;28444;48.056;14.408;2024-03-08T00:01:42;74.18;;;32.80;;
38911;SDS011;28444;48.056;14.408;2024-03-08T00:04:11;82.65;;;35.42;;
38911;SDS011;28444;48.056;14.408;2024-03-08T00:06:38;72.82;;;31.33;;
38911;SDS011;28444;48.056;14.408;2024-03-08T00:09:06;76.40;;;33.33;;
38911;SDS011;28444;48.056;14.408;2024-03-08T00:11:34;78.68;;;36.78;;
38911;SDS011;28444;48.056;14.408;2024-03-08T00:14:01;79.57;;;35.80;;
38911;SDS011;28444;48.056;14.408;2024-03-08T00:16:28;71.90;;;33.10;;
38911;SDS011;28444;48.056;14.408;2024-03-08T00:18:55;94.55;;;37.00;;
38911;SDS011;28444;48.056;14.408;2024-03-08T00:21:21;80.68;;;34.45;;
38911;SDS011;28444;48.056;14.408;2024-03-08T00:23:48;90.15;;;34.40;;
38911;SDS011;28444;48.056;14.408;2024-03-08T00:26:15;79.68;;;34.30;;
38911;SDS011;28444;48.056;14.408;2024-03-08T00:28:42;83.97;;;35.58;;
38911;SDS011;28444;48.056;14.408;2024-03-08T00:31:09;89.35;;;38.15;;
38911;SDS011;28444;48.056;14.408;2024-03-08T00:33:36;81.82;;;35.22;;
38911;SDS011;28444;48.056;14.408;2024-03-08T00:36:03;92.35;;;35.63;;
38911;SDS011;28444;48.056;14.408;2024-03-08T00:38:30;87.85;;;35.50;;
38911;SDS011;28444;48.056;14.408;2024-03-08T00:40:58;83.68;;;37.45;;
38911;SDS011;28444;48.056;14.408;2024-03-08T00:43:24;83.85;;;35.38;;
38911;SDS011;28444;48.056;14.408;2024-03-08T00:45:51;76.97;;;35.05;;
38911;SDS011;28444;48.056;14.408;2024-03-08T00:48:18;77.88;;;34.55;;
38911;SDS011;28444;48.056;14.408;2024-03-08T00:50:44;80.72;;;35.40;;
38911;SDS011;28444;48.056;14.408;2024-03-08T00:53:12;90.00;;;36.95;;
38911;SDS011;28444;48.056;14.408;2024-03-08T00:55:39;84.10;;;37.05;;
38911;SDS011;28444;48.056;14.408;2024-03-08T00:58:05;92.35;;;37.03;;
38911;SDS011;28444;48.056;14.408;2024-03-08T01:00:32;93.03;;;38.08;;
38911;SDS011;28444;48.056;14.408;2024-03-08T01:02:59;76.82;;;33.58;;
38911;SDS011;28444;48.056;14.408;2024-03-08T01:05:26;84.15;;;38.00;;
38911;SDS011;28444;48.056;14.408;2024-03-08T01:07:53;96.03;;;37.60;;
38911;SDS011;28444;48.056;14.408;2024-03-08T01:10:20;85.82;;;36.28;;
38911;SDS011;28444;48.056;14.408;2024-03-08T01:12:47;95.03;;;37.95;;
38911;SDS011;28444;48.056;14.408;2024-03-08T01:15:13;96.93;;;40.20;;
38911;SDS011;28444;48.056;14.408;2024-03-08T01:17:40;94.70;;;38.53;;
38911;SDS011;28444;48.056;14.408;2024-03-08T01:20:07;97.68;;;40.45;;
38911;SDS011;28444;48.056;14.408;2024-03-08T01:22:37;90.63;;;37.47;;
38911;SDS011;28444;48.056;14.408;2024-03-08T01:25:04;98.70;;;39.53;;
38911;SDS011;28444;48.056;14.408;2024-03-08T01:27:31;97.50;;;39.58;;
38911;SDS011;28444;48.056;14.408;2024-03-08T01:29:58;92.65;;;38.08;;
38911;SDS011;28444;48.056;14.408;2024-03-08T01:32:26;96.85;;;42.13;;
38911;SDS011;28444;48.056;14.408;2024-03-08T01:34:52;91.88;;;41.45;;
38911;SDS011;28444;48.056;14.408;2024-03-08T01:37:19;101.10;;;39.70;;
38911;SDS011;28444;48.056;14.408;2024-03-08T01:39:46;110.97;;;41.85;;
38911;SDS011;28444;48.056;14.408;2024-03-08T01:42:13;97.65;;;42.85;;
38911;SDS011;28444;48.056;14.408;2024-03-08T01:44:41;93.93;;;38.80;;
38911;SDS011;28444;48.056;14.408;2024-03-08T01:47:10;96.55;;;40.38;;
38911;SDS011;28444;48.056;14.408;2024-03-08T01:49:37;98.35;;;39.85;;
38911;SDS011;28444;48.056;14.408;2024-03-08T01:52:22;92.18;;;40.15;;
38911;SDS011;28444;48.056;14.408;2024-03-08T01:55:23;91.03;;;39.90;;
38911;SDS011;28444;48.056;14.408;2024-03-08T01:57:58;98.68;;;40.13;;
38911;SDS011;28444;48.056;14.408;2024-03-08T02:00:50;94.70;;;38.60;;
38911;SDS011;28444;48.056;14.408;2024-03-08T02:03:19;86.00;;;39.10;;
38911;SDS011;28444;48.056;14.408;2024-03-08T02:05:47;103.05;;;42.10;;
38911;SDS011;28444;48.056;14.408;2024-03-08T02:08:15;98.28;;;41.33;;
38911;SDS011;28444;48.056;14.408;2024-03-08T02:10:45;99.20;;;41.90;;
38911;SDS011;28444;48.056;14.408;2024-03-08T02:13:12;95.57;;;40.88;;
38911;SDS011;28444;48.056;14.408;2024-03-08T02:15:58;88.97;;;40.78;;
38911;SDS011;28444;48.056;14.408;2024-03-08T02:18:26;88.47;;;38.28;;
38911;SDS011;28444;48.056;14.408;2024-03-08T02:20:55;305.80;;;146.63;;
38911;SDS011;28444;48.056;14.408;2024-03-08T02:23:23;116.95;;;50.95;;
38911;SDS011;28444;48.056;14.408;2024-03-08T02:25:54;102.38;;;41.45;;
38911;SDS011;28444;48.056;14.408;2024-03-08T02:28:22;101.68;;;40.47;;
38911;SDS011;28444;48.056;14.408;2024-03-08T02:30:51;97.30;;;42.97;;
38911;SDS011;28444;48.056;14.408;2024-03-08T02:33:23;103.40;;;39.85;;
38911;SDS011;28444;48.056;14.408;2024-03-08T02:35:50;94.07;;;41.17;;
38911;SDS011;28444;48.056;14.408;2024-03-08T02:38:18;103.80;;;41.17;;
38911;SDS011;28444;48.056;14.408;2024-03-08T02:40:46;105.35;;;40.70;;
38911;SDS011;28444;48.056;14.408;2024-03-08T02:43:14;96.85;;;41.63;;
38911;SDS011;28444;48.056;14.408;2024-03-08T02:45:42;96.93;;;42.38;;
38911;SDS011;28444;48.056;14.408;2024-03-08T02:48:10;112.10;;;44.08;;
38911;SDS011;28444;48.056;14.408;2024-03-08T02:50:37;105.05;;;43.50;;
38911;SDS011;28444;48.056;14.408;2024-03-08T02:53:06;101.75;;;42.42;;
38911;SDS011;28444;48.056;14.408;2024-03-08T02:55:34;104.00;;;43.17;;
38911;SDS011;28444;48.056;14.408;2024-03-08T02:58:02;111.22;;;43.08;;
38911;SDS011;28444;48.056;14.408;2024-03-08T03:00:29;96.03;;;41.83;;
38911;SDS011;28444;48.056;14.408;2024-03-08T03:03:00;106.05;;;44.88;;
38911;SDS011;28444;48.056;14.408;2024-03-08T03:05:29;98.43;;;40.72;;
38911;SDS011;28444;48.056;14.408;2024-03-08T03:07:56;102.30;;;40.70;;
38911;SDS011;28444;48.056;14.408;2024-03-08T03:10:25;107.32;;;41.80;;
38911;SDS011;28444;48.056;14.408;2024-03-08T03:12:52;95.60;;;42.08;;
38911;SDS011;28444;48.056;14.408;2024-03-08T03:15:19;103.47;;;42.72;;
38911;SDS011;28444;48.056;14.408;2024-03-08T03:17:46;100.53;;;42.28;;
38911;SDS011;28444;48.056;14.408;2024-03-08T03:20:14;107.80;;;44.72;;
38911;SDS011;28444;48.056;14.408;2024-03-08T03:22:42;102.25;;;43.35;;
38911;SDS011;28444;48.056;14.408;2024-03-08T03:25:13;117.95;;;45.78;;
38911;SDS011;28444;48.056;14.408;2024-03-08T03:27:40;105.15;;;42.65;;
38911;SDS011;28444;48.056;14.408;2024-03-08T03:30:08;117.63;;;43.97;;
38911;SDS011;28444;48.056;14.408;2024-03-08T03:32:51;117.13;;;48.83;;
38911;SDS011;28444;48.056;14.408;2024-03-08T03:35:18;108.68;;;43.47;;
38911;SDS011;28444;48.056;14.408;2024-03-08T03:37:47;125.47;;;48.83;;
38911;SDS011;28444;48.056;14.408;2024-03-08T03:40:49;118.35;;;46.13;;
38911;SDS011;28444;48.056;14.408;2024-03-08T03:43:18;116.28;;;45.90;;
38911;SDS011;28444;48.056;14.408;2024-03-08T03:45:45;112.63;;;44.92;;
38911;SDS011;28444;48.056;14.408;2024-03-08T03:48:11;101.32;;;40.30;;
38911;SDS011;28444;48.056;14.408;2024-03-08T03:50:38;229.77;;;98.43;;
38911;SDS011;28444;48.056;14.408;2024-03-08T03:53:06;249.18;;;104.72;;
38911;SDS011;28444;48.056;14.408;2024-03-08T03:55:34;284.10;;;117.47;;
38911;SDS011;28444;48.056;14.408;2024-03-08T03:58:03;143.57;;;61.67;;
38911;SDS011;28444;48.056;14.408;2024-03-08T04:00:30;128.18;;;55.05;;
38911;SDS011;28444;48.056;14.408;2024-03-08T04:02:56;156.27;;;65.35;;
38911;SDS011;28444;48.056;14.408;2024-03-08T04:05:27;137.88;;;55.28;;
38911;SDS011;28444;48.056;14.408;2024-03-08T04:07:53;150.45;;;68.30;;
38911;SDS011;28444;48.056;14.408;2024-03-08T04:10:23;124.05;;;48.50;;
38911;SDS011;28444;48.056;14.408;2024-03-08T04:12:50;114.50;;;51.55;;
38911;SDS011;28444;48.056;14.408;2024-03-08T04:15:17;100.85;;;44.97;;
38911;SDS011;28444;48.056;14.408;2024-03-08T04:17:44;101.10;;;45.97;;
38911;SDS011;28444;48.056;14.408;2024-03-08T04:20:13;102.43;;;48.53;;
38911;SDS011;28444;48.056;14.408;2024-03-08T04:22:41;101.45;;;41.13;;
38911;SDS011;28444;48.056;14.408;2024-03-08T04:25:08;100.05;;;42.60;;
38911;SDS011;28444;48.056;14.408;2024-03-08T04:27:36;100.97;;;42.40;;
38911;SDS011;28444;48.056;14.408;2024-03-08T04:30:03;97.22;;;42.33;;
38911;SDS011;28444;48.056;14.408;2024-03-08T04:32:30;99.95;;;41.65;;
38911;SDS011;28444;48.056;14.408;2024-03-08T04:34:59;93.22;;;41.85;;
38911;SDS011;28444;48.056;14.408;2024-03-08T04:37:28;96.97;;;41.13;;
38911;SDS011;28444;48.056;14.408;2024-03-08T04:39:59;105.95;;;44.90;;
38911;SDS011;28444;48.056;14.408;2024-03-08T04:42:26;102.32;;;45.38;;
38911;SDS011;28444;48.056;14.408;2024-03-08T04:44:56;98.90;;;41.03;;
38911;SDS011;28444;48.056;14.408;2024-03-08T04:47:22;103.22;;;41.80;;
38911;SDS011;28444;48.056;14.408;2024-03-08T04:49:49;104.20;;;41.95;;
38911;SDS011;28444;48.056;14.408;2024-03-08T04:52:16;109.97;;;46.83;;
38911;SDS011;28444;48.056;14.408;2024-03-08T04:54:43;98.47;;;44.72;;
38911;SDS011;28444;48.056;14.408;2024-03-08T04:57:13;103.40;;;43.67;;
38911;SDS011;28444;48.056;14.408;2024-03-08T04:59:40;97.72;;;43.78;;
38911;SDS011;28444;48.056;14.408;2024-03-08T05:02:06;102.75;;;43.42;;
38911;SDS011;28444;48.056;14.408;2024-03-08T05:04:33;97.90;;;42.67;;
38911;SDS011;28444;48.056;14.408;2024-03-08T05:07:00;87.93;;;39.17;;
38911;SDS011;28444;48.056;14.408;2024-03-08T05:09:27;102.07;;;41.83;;
38911;SDS011;28444;48.056;14.408;2024-03-08T05:11:55;94.00;;;40.83;;
38911;SDS011;28444;48.056;14.408;2024-03-08T05:14:23;104.40;;;41.13;;
38911;SDS011;28444;48.056;14.408;2024-03-08T05:16:51;105.40;;;41.30;;
38911;SDS011;28444;48.056;14.408;2024-03-08T05:19:18;102.55;;;41.67;;
38911;SDS011;28444;48.056;14.408;2024-03-08T05:21:49;93.45;;;41.60;;
38911;SDS011;28444;48.056;14.408;2024-03-08T05:24:16;91.25;;;41.03;;
38911;SDS011;28444;48.056;14.408;2024-03-08T05:26:45;93.68;;;43.40;;
38911;SDS011;28444;48.056;14.408;2024-03-08T05:29:14;93.30;;;41.65;;
38911;SDS011;28444;48.056;14.408;2024-03-08T05:31:48;97.70;;;43.75;;
38911;SDS011;28444;48.056;14.408;2024-03-08T05:34:16;90.60;;;43.47;;
38911;SDS011;28444;48.056;14.408;2024-03-08T05:36:43;103.97;;;44.38;;
38911;SDS011;28444;48.056;14.408;2024-03-08T05:39:14;100.45;;;46.28;;
38911;SDS011;28444;48.056;14.408;2024-03-08T05:41:42;96.85;;;44.47;;
38911;SDS011;28444;48.056;14.408;2024-03-08T05:44:10;84.47;;;40.78;;
38911;SDS011;28444;48.056;14.408;2024-03-08T05:46:37;93.05;;;42.22;;
38911;SDS011;28444;48.056;14.408;2024-03-08T05:49:04;100.05;;;45.72;;
38911;SDS011;28444;48.056;14.408;2024-03-08T05:51:33;94.65;;;41.95;;
38911;SDS011;28444;48.056;14.408;2024-03-08T05:54:03;98.13;;;43.97;;
38911;SDS011;28444;48.056;14.408;2024-03-08T05:56:32;100.65;;;40.58;;
38911;SDS011;28444;48.056;14.408;2024-03-08T05:58:59;107.07;;;44.30;;
38911;SDS011;28444;48.056;14.408;2024-03-08T06:01:27;86.72;;;40.00;;
38911;SDS011;28444;48.056;14.408;2024-03-08T06:03:54;101.57;;;42.72;;
38911;SDS011;28444;48.056;14.408;2024-03-08T06:06:23;91.35;;;38.92;;
38911;SDS011;28444;48.056;14.408;2024-03-08T06:08:51;90.68;;;38.35;;
38911;SDS011;28444;48.056;14.408;2024-03-08T06:11:19;93.85;;;39.72;;
38911;SDS011;28444;48.056;14.408;2024-03-08T06:13:47;91.97;;;40.33;;
38911;SDS011;28444;48.056;14.408;2024-03-08T06:16:14;91.35;;;41.95;;
38911;SDS011;28444;48.056;14.408;2024-03-08T06:18:40;98.75;;;39.15;;
38911;SDS011;28444;48.056;14.408;2024-03-08T06:21:08;82.80;;;37.25;;
38911;SDS011;28444;48.056;14.408;2024-03-08T06:23:38;94.20;;;40.97;;
38911;SDS011;28444;48.056;14.408;2024-03-08T06:26:06;90.93;;;40.08;;
38911;SDS011;28444;48.056;14.408;2024-03-08T06:28:33;91.47;;;41.17;;
38911;SDS011;28444;48.056;14.408;2024-03-08T06:31:01;92.65;;;39.70;;
38911;SDS011;28444;48.056;14.408;2024-03-08T06:33:28;82.82;;;37.60;;
38911;SDS011;28444;48.056;14.408;2024-03-08T06:35:56;88.05;;;39.08;;
38911;SDS011;28444;48.056;14.408;2024-03-08T06:38:24;81.30;;;38.15;;
38911;SDS011;28444;48.056;14.408;2024-03-08T06:40:51;85.32;;;36.88;;
38911;SDS011;28444;48.056;14.408;2024-03-08T06:43:18;85.22;;;39.28;;
38911;SDS011;28444;48.056;14.408;2024-03-08T06:45:45;82.15;;;38.60;;
38911;SDS011;28444;48.056;14.408;2024-03-08T06:48:15;89.72;;;39.85;;
38911;SDS011;28444;48.056;14.408;2024-03-08T06:50:44;83.78;;;37.70;;
38911;SDS011;28444;48.056;14.408;2024-03-08T06:53:11;81.75;;;38.53;;
38911;SDS011;28444;48.056;14.408;2024-03-08T06:55:38;85.60;;;36.97;;
38911;SDS011;28444;48.056;14.408;2024-03-08T06:58:06;89.85;;;39.70;;
38911;SDS011;28444;48.056;14.408;2024-03-08T07:00:37;87.40;;;36.50;;
38911;SDS011;28444;48.056;14.408;2024-03-08T07:03:03;85.72;;;38.45;;
38911;SDS011;28444;48.056;14.408;2024-03-08T07:05:34;87.85;;;37.17;;
38911;SDS011;28444;48.056;14.408;2024-03-08T07:08:01;82.22;;;36.28;;
38911;SDS011;28444;48.056;14.408;2024-03-08T07:10:28;82.80;;;38.75;;
38911;SDS011;28444;48.056;14.408;2024-03-08T07:12:55;87.78;;;36.42;;
38911;SDS011;28444;48.056;14.408;2024-03-08T07:15:22;81.93;;;37.05;;
38911;SDS011;28444;48.056;14.408;2024-03-08T07:17:49;78.60;;;36.05;;
38911;SDS011;28444;48.056;14.408;2024-03-08T07:20:19;76.57;;;36.72;;
38911;SDS011;28444;48.056;14.408;2024-03-08T07:22:46;80.65;;;37.92;;
38911;SDS011;28444;48.056;14.408;2024-03-08T07:25:19;82.03;;;36.20;;
38911;SDS011;28444;48.056;14.408;2024-03-08T07:27:51;82.75;;;37.60;;
38911;SDS011;28444;48.056;14.408;2024-03-08T07:30:19;84.60;;;37.97;;
38911;SDS011;28444;48.056;14.408;2024-03-08T07:33:05;78.40;;;36.03;;
38911;SDS011;28444;48.056;14.408;2024-03-08T07:35:34;74.07;;;35.22;;
38911;SDS011;28444;48.056;14.408;2024-03-08T07:38:04;79.45;;;36.65;;
38911;SDS011;28444;48.056;14.408;2024-03-08T07:40:33;66.75;;;33.20;;
38911;SDS011;28444;48.056;14.408;2024-03-08T07:43:07;74.47;;;33.83;;
38911;SDS011;28444;48.056;14.408;2024-03-08T07:45:34;80.07;;;35.90;;
38911;SDS011;28444;48.056;14.408;2024-03-08T07:48:02;70.72;;;34.72;;
38911;SDS011;28444;48.056;14.408;2024-03-08T07:50:30;76.80;;;36.20;;
38911;SDS011;28444;48.056;14.408;2024-03-08T07:52:57;70.40;;;33.40;;
38911;SDS011;28444;48.056;14.408;2024-03-08T07:55:24;87.10;;;34.58;;
38911;SDS011;28444;48.056;14.408;2024-03-08T07:57:51;69.68;;;34.45;;
38911;SDS011;28444;48.056;14.408;2024-03-08T08:00:17;68.07;;;33.40;;
38911;SDS011;28444;48.056;14.408;2024-03-08T08:02:45;74.50;;;33.38;;
38911;SDS011;28444;48.056;14.408;2024-03-08T08:05:11;70.22;;;32.58;;
38911;SDS011;28444;48.056;14.408;2024-03-08T08:07:39;75.97;;;33.78;;
38911;SDS011;28444;48.056;14.408;2024-03-08T08:10:10;73.72;;;33.88;;
38911;SDS011;28444;48.056;14.408;2024-03-08T08:12:45;74.90;;;34.95;;
38911;SDS011;28444;48.056;14.408;2024-03-08T08:15:12;70.82;;;32.47;;
38911;SDS011;28444;48.056;14.408;2024-03-08T08:17:39;76.10;;;35.38;;
38911;SDS011;28444;48.056;14.408;2024-03-08T08:20:06;66.68;;;32.50;;
38911;SDS011;28444;48.056;14.408;2024-03-08T08:22:33;68.72;;;33.42;;
38911;SDS011;28444;48.056;14.408;2024-03-08T08:24:59;71.90;;;34.17;;
38911;SDS011;28444;48.056;14.408;2024-03-08T08:27:26;72.18;;;35.35;;
38911;SDS011;28444;48.056;14.408;2024-03-08T08:29:53;75.63;;;34.28;;
38911;SDS011;28444;48.056;14.408;2024-03-08T08:32:19;69.38;;;32.25;;
38911;SDS011;28444;48.056;14.408;2024-03-08T08:34:46;66.45;;;33.42;;
38911;SDS011;28444;48.056;14.408;2024-03-08T08:37:13;74.78;;;32.90;;
38911;SDS011;28444;48.056;14.408;2024-03-08T08:39:40;63.85;;;29.67;;
38911;SDS011;28444;48.056;14.408;2024-03-08T08:42:06;71.70;;;33.45;;
38911;SDS011;28444;48.056;14.408;2024-03-08T08:44:35;73.65;;;33.78;;
38911;SDS011;28444;48.056;14.408;2024-03-08T08:47:02;69.15;;;32.85;;
38911;SDS011;28444;48.056;14.408;2024-03-08T08:49:38;74.03;;;33.53;;
38911;SDS011;28444;48.056;14.408;2024-03-08T08:52:05;72.30;;;33.45;;
38911;SDS011;28444;48.056;14.408;2024-03-08T08:54:42;67.07;;;32.67;;
38911;SDS011;28444;48.056;14.408;2024-03-08T08:57:14;65.93;;;33.47;;
38911;SDS011;28444;48.056;14.408;2024-03-08T08:59:41;72.57;;;33.05;;
38911;SDS011;28444;48.056;14.408;2024-03-08T09:02:08;68.35;;;34.65;;
38911;SDS011;28444;48.056;14.408;2024-03-08T09:04:42;70.40;;;33.30;;
38911;SDS011;28444;48.056;14.408;2024-03-08T09:07:10;63.08;;;31.83;;
38911;SDS011;28444;48.056;14.408;2024-03-08T09:09:37;64.78;;;30.95;;
38911;SDS011;28444;48.056;14.408;2024-03-08T09:12:04;65.80;;;32.20;;
38911;SDS011;28444;48.056;14.408;2024-03-08T09:14:31;66.47;;;31.75;;
38911;SDS011;28444;48.056;14.408;2024-03-08T09:16:58;72.80;;;33.38;;
38911;SDS011;28444;48.056;14.408;2024-03-08T09:19:25;66.38;;;30.88;;
38911;SDS011;28444;48.056;14.408;2024-03-08T09:21:52;61.20;;;31.88;;
38911;SDS011;28444;48.056;14.408;2024-03-08T09:24:19;64.32;;;31.85;;
38911;SDS011;28444;48.056;14.408;2024-03-08T09:26:45;67.05;;;31.10;;
38911;SDS011;28444;48.056;14.408;2024-03-08T09:29:12;60.03;;;30.15;;
38911;SDS011;28444;48.056;14.408;2024-03-08T09:31:39;61.55;;;29.63;;
38911;SDS011;28444;48.056;14.408;2024-03-08T09:34:05;63.78;;;31.23;;
38911;SDS011;28444;48.056;14.408;2024-03-08T09:36:36;65.13;;;31.27;;
38911;SDS011;28444;48.056;14.408;2024-03-08T09:39:03;64.35;;;30.27;;
38911;SDS011;28444;48.056;14.408;2024-03-08T09:41:29;62.78;;;29.75;;
38911;SDS011;28444;48.056;14.408;2024-03-08T09:43:57;58.70;;;29.52;;
38911;SDS011;28444;48.056;14.408;2024-03-08T09:46:26;60.40;;;28.58;;
38911;SDS011;28444;48.056;14.408;2024-03-08T09:48:53;60.25;;;30.77;;
38911;SDS011;28444;48.056;14.408;2024-03-08T09:51:21;71.00;;;32.45;;
38911;SDS011;28444;48.056;14.408;2024-03-08T09:53:54;60.35;;;29.15;;
38911;SDS011;28444;48.056;14.408;2024-03-08T09:56:21;62.75;;;28.38;;
38911;SDS011;28444;48.056;14.408;2024-03-08T09:58:50;64.65;;;29.98;;
38911;SDS011;28444;48.056;14.408;2024-03-08T10:01:35;61.20;;;30.08;;
38911;SDS011;28444;48.056;14.408;2024-03-08T10:04:02;62.67;;;29.13;;
38911;SDS011;28444;48.056;14.408;2024-03-08T10:06:29;64.32;;;30.98;;
38911;SDS011;28444;48.056;14.408;2024-03-08T10:08:55;62.95;;;29.33;;
38911;SDS011;28444;48.056;14.408;2024-03-08T10:11:24;51.15;;;28.10;;
38911;SDS011;28444;48.056;14.408;2024-03-08T10:13:51;57.92;;;29.27;;
38911;SDS011;28444;48.056;14.408;2024-03-08T10:16:18;54.60;;;27.95;;
38911;SDS011;28444;48.056;14.408;2024-03-08T10:18:45;56.80;;;27.70;;
38911;SDS011;28444;48.056;14.408;2024-03-08T10:21:12;65.80;;;30.55;;
38911;SDS011;28444;48.056;14.408;2024-03-08T10:23:41;61.53;;;30.23;;
38911;SDS011;28444;48.056;14.408;2024-03-08T10:28:42;64.53;;;30.70;;
38911;SDS011;28444;48.056;14.408;2024-03-08T10:31:11;59.55;;;28.50;;
38911;SDS011;28444;48.056;14.408;2024-03-08T10:33:39;62.53;;;30.23;;
38911;SDS011;28444;48.056;14.408;2024-03-08T10:36:06;64.15;;;30.80;;
38911;SDS011;28444;48.056;14.408;2024-03-08T10:38:36;55.50;;;27.70;;
38911;SDS011;28444;48.056;14.408;2024-03-08T10:41:03;58.42;;;29.27;;
38911;SDS011;28444;48.056;14.408;2024-03-08T10:43:33;65.70;;;29.05;;
38911;SDS011;28444;48.056;14.408;2024-03-08T10:46:15;57.45;;;29.52;;
38911;SDS011;28444;48.056;14.408;2024-03-08T10:48:58;60.45;;;28.80;;
38911;SDS011;28444;48.056;14.408;2024-03-08T10:51:29;60.40;;;28.52;;
38911;SDS011;28444;48.056;14.408;2024-03-08T10:53:57;57.53;;;28.65;;
38911;SDS011;28444;48.056;14.408;2024-03-08T10:56:25;54.05;;;26.65;;
38911;SDS011;28444;48.056;14.408;2024-03-08T10:58:55;51.97;;;26.17;;
38911;SDS011;28444;48.056;14.408;2024-03-08T11:01:22;53.10;;;27.83;;
38911;SDS011;28444;48.056;14.408;2024-03-08T11:03:52;52.67;;;25.25;;
38911;SDS011;28444;48.056;14.408;2024-03-08T11:09:08;55.15;;;26.52;;
38911;SDS011;28444;48.056;14.408;2024-03-08T11:11:43;56.95;;;28.65;;
38911;SDS011;28444;48.056;14.408;2024-03-08T11:19:56;50.40;;;26.48;;
38911;SDS011;28444;48.056;14.408;2024-03-08T11:22:28;50.47;;;25.63;;
38911;SDS011;28444;48.056;14.408;2024-03-08T11:25:05;51.57;;;26.93;;
38911;SDS011;28444;48.056;14.408;2024-03-08T11:27:36;42.13;;;23.15;;
38911;SDS011;28444;48.056;14.408;2024-03-08T11:30:04;52.72;;;25.85;;
38911;SDS011;28444;48.056;14.408;2024-03-08T11:32:44;50.22;;;25.15;;
38911;SDS011;28444;48.056;14.408;2024-03-08T11:35:19;45.05;;;24.08;;
38911;SDS011;28444;48.056;14.408;2024-03-08T11:37:47;56.10;;;27.23;;
38911;SDS011;28444;48.056;14.408;2024-03-08T11:40:14;49.42;;;23.15;;
38911;SDS011;28444;48.056;14.408;2024-03-08T11:42:46;50.58;;;27.00;;
38911;SDS011;28444;48.056;14.408;2024-03-08T11:45:14;45.67;;;23.20;;
38911;SDS011;28444;48.056;14.408;2024-03-08T11:47:44;53.35;;;25.50;;
38911;SDS011;28444;48.056;14.408;2024-03-08T11:50:16;49.00;;;24.70;;
38911;SDS011;28444;48.056;14.408;2024-03-08T11:52:45;49.90;;;24.85;;
38911;SDS011;28444;48.056;14.408;2024-03-08T11:55:13;44.45;;;23.65;;
38911;SDS011;28444;48.056;14.408;2024-03-08T11:57:40;50.35;;;26.00;;
38911;SDS011;28444;48.056;14.408;2024-03-08T12:00:14;43.63;;;23.60;;
38911;SDS011;28444;48.056;14.408;2024-03-08T12:03:02;44.08;;;22.10;;
38911;SDS011;28444;48.056;14.408;2024-03-08T12:05:30;48.20;;;24.00;;
38911;SDS011;28444;48.056;14.408;2024-03-08T12:07:57;50.38;;;23.67;;
38911;SDS011;28444;48.056;14.408;2024-03-08T12:10:28;44.78;;;22.08;;
38911;SDS011;28444;48.056;14.408;2024-03-08T12:12:57;44.75;;;22.50;;
38911;SDS011;28444;48.056;14.408;2024-03-08T12:15:30;44.92;;;23.55;;
38911;SDS011;28444;48.056;14.408;2024-03-08T12:18:03;41.38;;;21.73;;
38911;SDS011;28444;48.056;14.408;2024-03-08T12:20:36;43.33;;;21.52;;
38911;SDS011;28444;48.056;14.408;2024-03-08T12:26:38;36.45;;;19.25;;
38911;SDS011;28444;48.056;14.408;2024-03-08T12:31:53;38.53;;;21.27;;
38911;SDS011;28444;48.056;14.408;2024-03-08T12:34:25;39.63;;;21.30;;
38911;SDS011;28444;48.056;14.408;2024-03-08T12:36:56;39.00;;;20.05;;
38911;SDS011;28444;48.056;14.408;2024-03-08T12:39:25;39.88;;;21.27;;
38911;SDS011;28444;48.056;14.408;2024-03-08T12:41:55;41.00;;;19.90;;
38911;SDS011;28444;48.056;14.408;2024-03-08T12:44:28;36.72;;;19.50;;
38911;SDS011;28444;48.056;14.408;2024-03-08T12:46:55;34.70;;;19.08;;
38911;SDS011;28444;48.056;14.408;2024-03-08T12:49:30;40.55;;;20.85;;
38911;SDS011;28444;48.056;14.408;2024-03-08T12:51:59;38.00;;;20.50;;
38911;SDS011;28444;48.056;14.408;2024-03-08T12:54:32;36.80;;;19.25;;
38911;SDS011;28444;48.056;14.408;2024-03-08T12:57:01;35.65;;;18.52;;
38911;SDS011;28444;48.056;14.408;2024-03-08T12:59:29;37.22;;;19.77;;
38911;SDS011;28444;48.056;14.408;2024-03-08T13:01:58;32.10;;;17.27;;
38911;SDS011;28444;48.056;14.408;2024-03-08T13:04:27;28.58;;;16.63;;
38911;SDS011;28444;48.056;14.408;2024-03-08T13:06:59;33.97;;;17.77;;
38911;SDS011;28444;48.056;14.408;2024-03-08T13:09:27;33.97;;;16.58;;
38911;SDS011;28444;48.056;14.408;2024-03-08T13:11:54;32.75;;;16.67;;
38911;SDS011;28444;48.056;14.408;2024-03-08T13:14:21;34.60;;;17.77;;
38911;SDS011;28444;48.056;14.408;2024-03-08T13:16:48;38.33;;;17.73;;
38911;SDS011;28444;48.056;14.408;2024-03-08T13:19:15;37.28;;;18.42;;
38911;SDS011;28444;48.056;14.408;2024-03-08T13:21:42;37.58;;;18.15;;
38911;SDS011;28444;48.056;14.408;2024-03-08T13:24:09;36.85;;;19.17;;
38911;SDS011;28444;48.056;14.408;2024-03-08T13:26:36;30.67;;;17.73;;
38911;SDS011;28444;48.056;14.408;2024-03-08T13:29:03;34.42;;;17.90;;
38911;SDS011;28444;48.056;14.408;2024-03-08T13:31:29;32.45;;;18.05;;
38911;SDS011;28444;48.056;14.408;2024-03-08T13:33:56;32.40;;;18.42;;
38911;SDS011;28444;48.056;14.408;2024-03-08T13:36:25;37.45;;;17.05;;
38911;SDS011;28444;48.056;14.408;2024-03-08T13:38:55;24.10;;;15.55;;
38911;SDS011;28444;48.056;14.408;2024-03-08T13:41:25;30.60;;;15.95;;
38911;SDS011;28444;48.056;14.408;2024-03-08T13:43:52;30.58;;;16.38;;
38911;SDS011;28444;48.056;14.408;2024-03-08T13:46:19;26.15;;;15.88;;
38911;SDS011;28444;48.056;14.408;2024-03-08T13:48:46;30.25;;;15.57;;
38911;SDS011;28444;48.056;14.408;2024-03-08T13:51:14;27.75;;;16.35;;
38911;SDS011;28444;48.056;14.408;2024-03-08T13:53:42;26.65;;;16.08;;
38911;SDS011;28444;48.056;14.408;2024-03-08T13:56:09;27.58;;;15.98;;
38911;SDS011;28444;48.056;14.408;2024-03-08T13:58:38;30.23;;;16.05;;
38911;SDS011;28444;48.056;14.408;2024-03-08T14:01:07;27.33;;;14.85;;
38911;SDS011;28444;48.056;14.408;2024-03-08T14:03:39;31.37;;;14.90;;
38911;SDS011;28444;48.056;14.408;2024-03-08T14:06:08;25.90;;;15.30;;
38911;SDS011;28444;48.056;14.408;2024-03-08T14:08:36;29.70;;;15.52;;
38911;SDS011;28444;48.056;14.408;2024-03-08T14:11:05;27.17;;;14.30;;
38911;SDS011;28444;48.056;14.408;2024-03-08T14:13:43;25.83;;;14.88;;
38911;SDS011;28444;48.056;14.408;2024-03-08T14:16:13;26.88;;;13.52;;
38911;SDS011;28444;48.056;14.408;2024-03-08T14:18:40;25.45;;;14.27;;
38911;SDS011;28444;48.056;14.408;2024-03-08T14:21:07;27.15;;;14.10;;
38911;SDS011;28444;48.056;14.408;2024-03-08T14:23:37;25.10;;;14.20;;
38911;SDS011;28444;48.056;14.408;2024-03-08T14:26:04;24.70;;;14.52;;
38911;SDS011;28444;48.056;14.408;2024-03-08T14:28:34;25.67;;;13.90;;
38911;SDS011;28444;48.056;14.408;2024-03-08T14:31:01;25.00;;;13.50;;
38911;SDS011;28444;48.056;14.408;2024-03-08T14:33:32;21.30;;;12.80;;